sensor_id;sensor_type;location;lat;lon;timestamp;P1;durP1;ratioP1;P2;durP2;ratioP2
12970;SDS011;6550;48.650;8.774;2023-03-21T00:01:50;1.83;;;1.60;;
12970;SDS011;6550;48.650;8.774;2023-03-21T00:04:23;1.50;;;1.40;;
12970;SDS011;6550;48.650;8.774;2023-03-21T00:06:56;1.57;;;1.47;;
12970;SDS011;6550;48.650;8.774;2023-03-21T00:09:28;1.50;;;1.40;;
12970;SDS011;6550;48.650;8.774;2023-03-21T00:11:54;1.63;;;1.53;;
12970;SDS011;6550;48.650;8.774;2023-03-21T00:14:21;1.73;;;1.50;;
12970;SDS011;6550;48.650;8.774;2023-03-21T00:16:49;1.57;;;1.47;;
12970;SDS011;6550;48.650;8.774;2023-03-21T00:19:19;1.67;;;1.57;;
12970;SDS011;6550;48.650;8.774;2023-03-21T00:21:51;1.63;;;1.50;;
12970;SDS011;6550;48.650;8.774;2023-03-21T00:24:34;1.97;;;1.57;;
12970;SDS011;6550;48.650;8.774;2023-03-21T00:27:04;1.77;;;1.40;;
12970;SDS011;6550;48.650;8.774;2023-03-21T00:29:52;1.50;;;1.40;;
12970;SDS011;6550;48.650;8.774;2023-03-21T00:32:19;1.83;;;1.50;;
12970;SDS011;6550;48.650;8.774;2023-03-21T00:34:47;2.10;;;1.73;;
12970;SDS011;6550;48.650;8.774;2023-03-21T00:37:30;2.13;;;1.50;;
12970;SDS011;6550;48.650;8.774;2023-03-21T00:39:57;2.40;;;1.80;;
12970;SDS011;6550;48.650;8.774;2023-03-21T00:42:29;1.60;;;1.50;;
12970;SDS011;6550;48.650;8.774;2023-03-21T00:44:55;1.60;;;1.50;;
12970;SDS011;6550;48.650;8.774;2023-03-21T00:47:25;2.13;;;1.73;;
12970;SDS011;6550;48.650;8.774;2023-03-21T00:49:54;1.57;;;1.33;;
12970;SDS011;6550;48.650;8.774;2023-03-21T00:52:28;1.40;;;1.30;;
12970;SDS011;6550;48.650;8.774;2023-03-21T00:55:06;2.07;;;1.40;;
12970;SDS011;6550;48.650;8.774;2023-03-21T00:57:37;1.73;;;1.50;;
12970;SDS011;6550;48.650;8.774;2023-03-21T01:00:05;2.00;;;1.80;;
12970;SDS011;6550;48.650;8.774;2023-03-21T01:02:35;2.50;;;1.50;;
12970;SDS011;6550;48.650;8.774;2023-03-21T01:05:10;2.53;;;1.40;;
12970;SDS011;6550;48.650;8.774;2023-03-21T01:07:37;3.13;;;1.60;;
12970;SDS011;6550;48.650;8.774;2023-03-21T01:10:04;2.00;;;1.60;;
12970;SDS011;6550;48.650;8.774;2023-03-21T01:12:31;1.47;;;1.37;;
12970;SDS011;6550;48.650;8.774;2023-03-21T01:15:00;1.90;;;1.80;;
12970;SDS011;6550;48.650;8.774;2023-03-21T01:17:29;1.70;;;1.60;;
12970;SDS011;6550;48.650;8.774;2023-03-21T01:20:01;1.63;;;1.53;;
12970;SDS011;6550;48.650;8.774;2023-03-21T01:22:27;2.10;;;1.90;;
12970;SDS011;6550;48.650;8.774;2023-03-21T01:24:54;1.40;;;1.30;;
12970;SDS011;6550;48.650;8.774;2023-03-21T01:27:37;1.97;;;1.60;;
12970;SDS011;6550;48.650;8.774;2023-03-21T01:30:04;1.37;;;1.27;;
12970;SDS011;6550;48.650;8.774;2023-03-21T01:32:44;2.03;;;1.70;;
12970;SDS011;6550;48.650;8.774;2023-03-21T01:35:14;1.60;;;1.50;;
12970;SDS011;6550;48.650;8.774;2023-03-21T01:37:41;3.20;;;1.60;;
12970;SDS011;6550;48.650;8.774;2023-03-21T01:40:14;2.63;;;1.70;;
12970;SDS011;6550;48.650;8.774;2023-03-21T01:42:43;1.80;;;1.60;;
12970;SDS011;6550;48.650;8.774;2023-03-21T01:48:17;1.50;;;1.27;;
12970;SDS011;6550;48.650;8.774;2023-03-21T01:50:45;2.13;;;1.60;;
12970;SDS011;6550;48.650;8.774;2023-03-21T01:53:15;2.23;;;1.53;;
12970;SDS011;6550;48.650;8.774;2023-03-21T01:55:42;1.88;;;1.67;;
12970;SDS011;6550;48.650;8.774;2023-03-21T01:58:09;1.40;;;1.30;;
12970;SDS011;6550;48.650;8.774;2023-03-21T02:00:37;1.73;;;1.50;;
12970;SDS011;6550;48.650;8.774;2023-03-21T02:03:07;2.60;;;1.63;;
12970;SDS011;6550;48.650;8.774;2023-03-21T02:08:15;2.43;;;1.60;;
12970;SDS011;6550;48.650;8.774;2023-03-21T02:10:43;1.77;;;1.50;;
12970;SDS011;6550;48.650;8.774;2023-03-21T02:13:15;1.70;;;1.60;;
12970;SDS011;6550;48.650;8.774;2023-03-21T02:15:46;1.70;;;1.40;;
12970;SDS011;6550;48.650;8.774;2023-03-21T02:26:14;1.80;;;1.70;;
12970;SDS011;6550;48.650;8.774;2023-03-21T02:35:12;1.87;;;1.77;;
12970;SDS011;6550;48.650;8.774;2023-03-21T02:38:09;1.67;;;1.57;;
12970;SDS011;6550;48.650;8.774;2023-03-21T02:43:39;1.80;;;1.70;;
12970;SDS011;6550;48.650;8.774;2023-03-21T02:46:15;2.00;;;1.80;;
12970;SDS011;6550;48.650;8.774;2023-03-21T02:49:46;1.50;;;1.40;;
12970;SDS011;6550;48.650;8.774;2023-03-21T02:52:09;2.10;;;1.83;;
12970;SDS011;6550;48.650;8.774;2023-03-21T02:55:01;1.60;;;1.50;;
12970;SDS011;6550;48.650;8.774;2023-03-21T02:57:30;2.13;;;1.93;;
12970;SDS011;6550;48.650;8.774;2023-03-21T03:00:08;2.93;;;1.70;;
12970;SDS011;6550;48.650;8.774;2023-03-21T03:02:42;2.33;;;1.80;;
12970;SDS011;6550;48.650;8.774;2023-03-21T03:05:20;2.07;;;1.67;;
12970;SDS011;6550;48.650;8.774;2023-03-21T03:10:21;2.73;;;1.60;;
12970;SDS011;6550;48.650;8.774;2023-03-21T03:15:34;4.63;;;2.20;;
12970;SDS011;6550;48.650;8.774;2023-03-21T03:18:12;2.20;;;1.92;;
12970;SDS011;6550;48.650;8.774;2023-03-21T03:26:38;2.10;;;1.80;;
12970;SDS011;6550;48.650;8.774;2023-03-21T03:29:11;2.80;;;1.90;;
12970;SDS011;6550;48.650;8.774;2023-03-21T03:31:42;2.03;;;1.80;;
12970;SDS011;6550;48.650;8.774;2023-03-21T03:34:19;3.83;;;1.67;;
12970;SDS011;6550;48.650;8.774;2023-03-21T03:36:53;1.73;;;1.60;;
12970;SDS011;6550;48.650;8.774;2023-03-21T03:39:31;2.13;;;1.93;;
12970;SDS011;6550;48.650;8.774;2023-03-21T03:42:02;3.60;;;1.80;;
12970;SDS011;6550;48.650;8.774;2023-03-21T03:44:52;2.87;;;1.77;;
12970;SDS011;6550;48.650;8.774;2023-03-21T03:47:20;3.77;;;2.00;;
12970;SDS011;6550;48.650;8.774;2023-03-21T03:50:04;1.80;;;1.70;;
12970;SDS011;6550;48.650;8.774;2023-03-21T03:52:41;1.97;;;1.70;;
12970;SDS011;6550;48.650;8.774;2023-03-21T03:55:22;2.77;;;1.90;;
12970;SDS011;6550;48.650;8.774;2023-03-21T03:57:52;2.27;;;1.97;;
12970;SDS011;6550;48.650;8.774;2023-03-21T04:00:20;2.33;;;1.97;;
12970;SDS011;6550;48.650;8.774;2023-03-21T04:02:47;2.43;;;1.83;;
12970;SDS011;6550;48.650;8.774;2023-03-21T04:05:14;2.60;;;2.07;;
12970;SDS011;6550;48.650;8.774;2023-03-21T04:07:46;2.00;;;1.80;;
12970;SDS011;6550;48.650;8.774;2023-03-21T04:10:18;3.00;;;1.90;;
12970;SDS011;6550;48.650;8.774;2023-03-21T04:12:47;2.73;;;1.80;;
12970;SDS011;6550;48.650;8.774;2023-03-21T04:15:14;1.80;;;1.70;;
12970;SDS011;6550;48.650;8.774;2023-03-21T04:17:41;2.00;;;1.90;;
12970;SDS011;6550;48.650;8.774;2023-03-21T04:20:08;1.97;;;1.73;;
12970;SDS011;6550;48.650;8.774;2023-03-21T04:22:43;2.07;;;1.90;;
12970;SDS011;6550;48.650;8.774;2023-03-21T04:25:10;2.20;;;2.00;;
12970;SDS011;6550;48.650;8.774;2023-03-21T04:27:49;2.17;;;1.95;;
12970;SDS011;6550;48.650;8.774;2023-03-21T04:30:16;2.10;;;1.90;;
12970;SDS011;6550;48.650;8.774;2023-03-21T04:32:44;1.87;;;1.73;;
12970;SDS011;6550;48.650;8.774;2023-03-21T04:35:22;2.00;;;1.73;;
12970;SDS011;6550;48.650;8.774;2023-03-21T04:37:50;2.27;;;2.07;;
12970;SDS011;6550;48.650;8.774;2023-03-21T04:40:19;1.63;;;1.53;;
12970;SDS011;6550;48.650;8.774;2023-03-21T04:42:47;2.03;;;1.90;;
12970;SDS011;6550;48.650;8.774;2023-03-21T04:45:17;2.23;;;1.83;;
12970;SDS011;6550;48.650;8.774;2023-03-21T04:47:44;1.93;;;1.83;;
12970;SDS011;6550;48.650;8.774;2023-03-21T04:50:13;1.90;;;1.80;;
12970;SDS011;6550;48.650;8.774;2023-03-21T04:52:42;1.73;;;1.63;;
12970;SDS011;6550;48.650;8.774;2023-03-21T04:55:08;2.30;;;2.00;;
12970;SDS011;6550;48.650;8.774;2023-03-21T04:57:38;1.87;;;1.70;;
12970;SDS011;6550;48.650;8.774;2023-03-21T05:00:05;2.10;;;1.83;;
12970;SDS011;6550;48.650;8.774;2023-03-21T05:02:36;1.83;;;1.73;;
12970;SDS011;6550;48.650;8.774;2023-03-21T05:05:03;3.03;;;1.70;;
12970;SDS011;6550;48.650;8.774;2023-03-21T05:07:31;4.73;;;2.00;;
12970;SDS011;6550;48.650;8.774;2023-03-21T05:10:00;3.27;;;1.70;;
12970;SDS011;6550;48.650;8.774;2023-03-21T05:12:28;2.20;;;1.90;;
12970;SDS011;6550;48.650;8.774;2023-03-21T05:14:54;3.07;;;1.63;;
12970;SDS011;6550;48.650;8.774;2023-03-21T05:17:21;2.70;;;1.92;;
12970;SDS011;6550;48.650;8.774;2023-03-21T05:19:50;1.83;;;1.73;;
12970;SDS011;6550;48.650;8.774;2023-03-21T05:22:18;5.10;;;1.70;;
12970;SDS011;6550;48.650;8.774;2023-03-21T05:24:45;1.73;;;1.63;;
12970;SDS011;6550;48.650;8.774;2023-03-21T05:27:18;1.60;;;1.50;;
12970;SDS011;6550;48.650;8.774;2023-03-21T05:30:02;6.13;;;2.03;;
12970;SDS011;6550;48.650;8.774;2023-03-21T05:32:32;1.80;;;1.70;;
12970;SDS011;6550;48.650;8.774;2023-03-21T05:35:00;1.80;;;1.70;;
12970;SDS011;6550;48.650;8.774;2023-03-21T05:37:30;3.20;;;1.50;;
12970;SDS011;6550;48.650;8.774;2023-03-21T05:39:56;1.93;;;1.50;;
12970;SDS011;6550;48.650;8.774;2023-03-21T05:42:23;2.23;;;1.47;;
12970;SDS011;6550;48.650;8.774;2023-03-21T05:44:51;3.67;;;1.77;;
12970;SDS011;6550;48.650;8.774;2023-03-21T05:47:18;1.60;;;1.50;;
12970;SDS011;6550;48.650;8.774;2023-03-21T05:49:45;6.03;;;2.00;;
12970;SDS011;6550;48.650;8.774;2023-03-21T05:52:12;3.10;;;1.70;;
12970;SDS011;6550;48.650;8.774;2023-03-21T05:54:39;3.73;;;1.83;;
12970;SDS011;6550;48.650;8.774;2023-03-21T05:57:06;1.70;;;1.60;;
12970;SDS011;6550;48.650;8.774;2023-03-21T05:59:35;1.50;;;1.40;;
12970;SDS011;6550;48.650;8.774;2023-03-21T06:02:02;1.50;;;1.40;;
12970;SDS011;6550;48.650;8.774;2023-03-21T06:04:29;2.37;;;1.80;;
12970;SDS011;6550;48.650;8.774;2023-03-21T06:06:56;5.47;;;1.70;;
12970;SDS011;6550;48.650;8.774;2023-03-21T06:09:23;1.77;;;1.67;;
12970;SDS011;6550;48.650;8.774;2023-03-21T06:11:52;2.17;;;1.80;;
12970;SDS011;6550;48.650;8.774;2023-03-21T06:14:21;1.50;;;1.40;;
12970;SDS011;6550;48.650;8.774;2023-03-21T06:16:49;2.07;;;1.80;;
12970;SDS011;6550;48.650;8.774;2023-03-21T06:19:16;6.30;;;1.43;;
12970;SDS011;6550;48.650;8.774;2023-03-21T06:21:42;1.87;;;1.60;;
12970;SDS011;6550;48.650;8.774;2023-03-21T06:24:10;1.90;;;1.70;;
12970;SDS011;6550;48.650;8.774;2023-03-21T06:26:36;3.65;;;1.85;;
12970;SDS011;6550;48.650;8.774;2023-03-21T06:29:03;3.13;;;1.87;;
12970;SDS011;6550;48.650;8.774;2023-03-21T06:31:31;2.47;;;1.57;;
12970;SDS011;6550;48.650;8.774;2023-03-21T06:33:59;1.73;;;1.60;;
12970;SDS011;6550;48.650;8.774;2023-03-21T06:36:26;2.10;;;1.70;;
12970;SDS011;6550;48.650;8.774;2023-03-21T06:38:53;3.30;;;1.60;;
12970;SDS011;6550;48.650;8.774;2023-03-21T06:41:22;2.40;;;2.03;;
12970;SDS011;6550;48.650;8.774;2023-03-21T06:43:51;1.70;;;1.60;;
12970;SDS011;6550;48.650;8.774;2023-03-21T06:46:18;2.50;;;1.88;;
12970;SDS011;6550;48.650;8.774;2023-03-21T06:48:45;4.63;;;1.73;;
12970;SDS011;6550;48.650;8.774;2023-03-21T06:51:13;4.83;;;2.00;;
12970;SDS011;6550;48.650;8.774;2023-03-21T06:53:40;2.83;;;1.63;;
12970;SDS011;6550;48.650;8.774;2023-03-21T06:56:08;2.90;;;1.90;;
12970;SDS011;6550;48.650;8.774;2023-03-21T06:58:36;2.77;;;1.90;;
12970;SDS011;6550;48.650;8.774;2023-03-21T07:01:05;3.07;;;1.70;;
12970;SDS011;6550;48.650;8.774;2023-03-21T07:03:33;5.10;;;2.17;;
12970;SDS011;6550;48.650;8.774;2023-03-21T07:06:07;4.70;;;1.80;;
12970;SDS011;6550;48.650;8.774;2023-03-21T07:08:39;4.00;;;2.00;;
12970;SDS011;6550;48.650;8.774;2023-03-21T07:11:08;4.43;;;2.10;;
12970;SDS011;6550;48.650;8.774;2023-03-21T07:13:35;2.10;;;1.73;;
12970;SDS011;6550;48.650;8.774;2023-03-21T07:16:02;2.20;;;2.00;;
12970;SDS011;6550;48.650;8.774;2023-03-21T07:18:30;3.40;;;1.90;;
12970;SDS011;6550;48.650;8.774;2023-03-21T07:20:59;2.40;;;2.10;;
12970;SDS011;6550;48.650;8.774;2023-03-21T07:23:26;2.80;;;2.33;;
12970;SDS011;6550;48.650;8.774;2023-03-21T07:25:54;3.17;;;2.30;;
12970;SDS011;6550;48.650;8.774;2023-03-21T07:28:21;2.47;;;1.87;;
12970;SDS011;6550;48.650;8.774;2023-03-21T07:30:55;8.30;;;2.27;;
12970;SDS011;6550;48.650;8.774;2023-03-21T07:33:26;4.50;;;1.93;;
12970;SDS011;6550;48.650;8.774;2023-03-21T07:35:56;2.30;;;2.10;;
12970;SDS011;6550;48.650;8.774;2023-03-21T07:38:25;3.03;;;2.40;;
12970;SDS011;6550;48.650;8.774;2023-03-21T07:40:53;5.40;;;2.30;;
12970;SDS011;6550;48.650;8.774;2023-03-21T07:43:22;2.43;;;2.13;;
12970;SDS011;6550;48.650;8.774;2023-03-21T07:45:49;3.60;;;2.13;;
12970;SDS011;6550;48.650;8.774;2023-03-21T07:48:18;2.80;;;2.07;;
12970;SDS011;6550;48.650;8.774;2023-03-21T07:50:45;2.53;;;2.03;;
12970;SDS011;6550;48.650;8.774;2023-03-21T07:53:14;3.03;;;1.83;;
12970;SDS011;6550;48.650;8.774;2023-03-21T07:55:41;2.75;;;2.15;;
12970;SDS011;6550;48.650;8.774;2023-03-21T07:58:14;2.53;;;2.13;;
12970;SDS011;6550;48.650;8.774;2023-03-21T08:00:41;3.00;;;2.07;;
12970;SDS011;6550;48.650;8.774;2023-03-21T08:03:11;2.50;;;2.30;;
12970;SDS011;6550;48.650;8.774;2023-03-21T08:05:40;2.40;;;1.97;;
12970;SDS011;6550;48.650;8.774;2023-03-21T08:08:10;1.70;;;1.60;;
12970;SDS011;6550;48.650;8.774;2023-03-21T08:10:36;3.67;;;2.47;;
12970;SDS011;6550;48.650;8.774;2023-03-21T08:13:03;1.95;;;1.70;;
12970;SDS011;6550;48.650;8.774;2023-03-21T08:15:30;2.13;;;1.80;;
12970;SDS011;6550;48.650;8.774;2023-03-21T08:17:58;1.83;;;1.73;;
12970;SDS011;6550;48.650;8.774;2023-03-21T08:20:26;2.20;;;1.80;;
12970;SDS011;6550;48.650;8.774;2023-03-21T08:22:58;3.33;;;1.87;;
12970;SDS011;6550;48.650;8.774;2023-03-21T08:25:26;2.67;;;1.60;;
12970;SDS011;6550;48.650;8.774;2023-03-21T08:27:56;1.40;;;1.23;;
12970;SDS011;6550;48.650;8.774;2023-03-21T08:30:23;1.90;;;1.70;;
12970;SDS011;6550;48.650;8.774;2023-03-21T08:32:59;4.20;;;1.90;;
12970;SDS011;6550;48.650;8.774;2023-03-21T08:35:27;2.00;;;1.77;;
12970;SDS011;6550;48.650;8.774;2023-03-21T08:37:54;2.03;;;1.70;;
12970;SDS011;6550;48.650;8.774;2023-03-21T08:40:23;2.10;;;1.70;;
12970;SDS011;6550;48.650;8.774;2023-03-21T08:42:51;1.83;;;1.30;;
12970;SDS011;6550;48.650;8.774;2023-03-21T08:45:17;2.17;;;1.30;;
12970;SDS011;6550;48.650;8.774;2023-03-21T08:47:44;1.90;;;1.63;;
12970;SDS011;6550;48.650;8.774;2023-03-21T08:50:13;1.77;;;1.57;;
12970;SDS011;6550;48.650;8.774;2023-03-21T08:52:46;1.57;;;1.47;;
12970;SDS011;6550;48.650;8.774;2023-03-21T08:55:19;1.97;;;1.57;;
12970;SDS011;6550;48.650;8.774;2023-03-21T08:57:45;2.00;;;1.37;;
12970;SDS011;6550;48.650;8.774;2023-03-21T09:00:16;1.43;;;1.33;;
12970;SDS011;6550;48.650;8.774;2023-03-21T09:02:44;1.58;;;1.48;;
12970;SDS011;6550;48.650;8.774;2023-03-21T09:05:17;1.47;;;1.33;;
12970;SDS011;6550;48.650;8.774;2023-03-21T09:07:44;7.43;;;1.17;;
12970;SDS011;6550;48.650;8.774;2023-03-21T09:10:13;3.53;;;1.43;;
12970;SDS011;6550;48.650;8.774;2023-03-21T09:12:47;3.80;;;1.50;;
12970;SDS011;6550;48.650;8.774;2023-03-21T09:15:20;1.73;;;1.57;;
12970;SDS011;6550;48.650;8.774;2023-03-21T09:17:50;1.50;;;1.30;;
12970;SDS011;6550;48.650;8.774;2023-03-21T09:20:21;3.73;;;1.50;;
12970;SDS011;6550;48.650;8.774;2023-03-21T09:22:55;1.70;;;1.60;;
12970;SDS011;6550;48.650;8.774;2023-03-21T09:25:23;1.67;;;1.23;;
12970;SDS011;6550;48.650;8.774;2023-03-21T09:27:50;1.43;;;1.17;;
12970;SDS011;6550;48.650;8.774;2023-03-21T09:30:18;4.33;;;1.10;;
12970;SDS011;6550;48.650;8.774;2023-03-21T09:32:51;2.43;;;1.30;;
12970;SDS011;6550;48.650;8.774;2023-03-21T09:35:19;1.80;;;1.45;;
12970;SDS011;6550;48.650;8.774;2023-03-21T09:37:47;1.30;;;1.20;;
12970;SDS011;6550;48.650;8.774;2023-03-21T09:45:48;3.20;;;1.40;;
12970;SDS011;6550;48.650;8.774;2023-03-21T09:48:41;2.80;;;1.13;;
12970;SDS011;6550;48.650;8.774;2023-03-21T09:51:25;1.40;;;1.30;;
12970;SDS011;6550;48.650;8.774;2023-03-21T09:54:05;1.13;;;1.03;;
12970;SDS011;6550;48.650;8.774;2023-03-21T09:56:54;2.20;;;1.40;;
12970;SDS011;6550;48.650;8.774;2023-03-21T09:59:27;2.17;;;1.43;;
12970;SDS011;6550;48.650;8.774;2023-03-21T10:05:08;2.23;;;1.13;;
12970;SDS011;6550;48.650;8.774;2023-03-21T10:07:45;1.47;;;1.27;;
12970;SDS011;6550;48.650;8.774;2023-03-21T10:10:19;1.10;;;1.00;;
12970;SDS011;6550;48.650;8.774;2023-03-21T10:12:53;1.57;;;1.10;;
12970;SDS011;6550;48.650;8.774;2023-03-21T10:15:22;1.53;;;1.20;;
12970;SDS011;6550;48.650;8.774;2023-03-21T10:17:58;1.10;;;1.00;;
12970;SDS011;6550;48.650;8.774;2023-03-21T10:20:34;1.53;;;1.00;;
12970;SDS011;6550;48.650;8.774;2023-03-21T10:23:04;1.07;;;0.97;;
12970;SDS011;6550;48.650;8.774;2023-03-21T10:25:45;2.33;;;0.90;;
12970;SDS011;6550;48.650;8.774;2023-03-21T10:28:17;0.87;;;0.87;;
12970;SDS011;6550;48.650;8.774;2023-03-21T10:30:51;1.47;;;1.07;;
12970;SDS011;6550;48.650;8.774;2023-03-21T10:33:26;4.33;;;1.00;;
12970;SDS011;6550;48.650;8.774;2023-03-21T10:36:01;0.80;;;0.80;;
12970;SDS011;6550;48.650;8.774;2023-03-21T10:38:33;1.90;;;1.20;;
12970;SDS011;6550;48.650;8.774;2023-03-21T10:41:00;2.07;;;0.87;;
12970;SDS011;6550;48.650;8.774;2023-03-21T10:46:04;1.10;;;1.00;;
12970;SDS011;6550;48.650;8.774;2023-03-21T10:48:37;1.23;;;0.90;;
12970;SDS011;6550;48.650;8.774;2023-03-21T10:51:08;1.13;;;1.03;;
12970;SDS011;6550;48.650;8.774;2023-03-21T10:53:37;0.80;;;0.77;;
12970;SDS011;6550;48.650;8.774;2023-03-21T10:56:07;1.00;;;0.90;;
12970;SDS011;6550;48.650;8.774;2023-03-21T10:58:38;12.20;;;1.70;;
12970;SDS011;6550;48.650;8.774;2023-03-21T11:01:11;7.53;;;1.23;;
12970;SDS011;6550;48.650;8.774;2023-03-21T11:03:56;6.67;;;1.20;;
12970;SDS011;6550;48.650;8.774;2023-03-21T11:06:31;12.03;;;1.40;;
12970;SDS011;6550;48.650;8.774;2023-03-21T11:09:11;7.50;;;1.60;;
12970;SDS011;6550;48.650;8.774;2023-03-21T11:11:49;5.23;;;0.97;;
12970;SDS011;6550;48.650;8.774;2023-03-21T11:14:38;3.47;;;0.90;;
12970;SDS011;6550;48.650;8.774;2023-03-21T11:19:51;3.23;;;1.00;;
12970;SDS011;6550;48.650;8.774;2023-03-21T11:22:28;1.83;;;0.80;;
12970;SDS011;6550;48.650;8.774;2023-03-21T11:25:04;2.87;;;1.07;;
12970;SDS011;6550;48.650;8.774;2023-03-21T11:27:34;3.72;;;1.00;;
12970;SDS011;6550;48.650;8.774;2023-03-21T11:30:02;2.23;;;1.00;;
12970;SDS011;6550;48.650;8.774;2023-03-21T11:32:34;0.80;;;0.50;;
12970;SDS011;6550;48.650;8.774;2023-03-21T11:35:12;1.50;;;1.00;;
12970;SDS011;6550;48.650;8.774;2023-03-21T11:37:46;0.97;;;0.77;;
12970;SDS011;6550;48.650;8.774;2023-03-21T11:46:22;2.00;;;1.30;;
12970;SDS011;6550;48.650;8.774;2023-03-21T11:48:42;1.80;;;1.07;;
12970;SDS011;6550;48.650;8.774;2023-03-21T11:51:35;2.67;;;1.30;;
12970;SDS011;6550;48.650;8.774;2023-03-21T11:55:08;2.53;;;1.10;;
12970;SDS011;6550;48.650;8.774;2023-03-21T12:00:05;1.53;;;1.20;;
12970;SDS011;6550;48.650;8.774;2023-03-21T12:06:15;2.00;;;1.50;;
12970;SDS011;6550;48.650;8.774;2023-03-21T12:08:58;2.35;;;1.23;;
12970;SDS011;6550;48.650;8.774;2023-03-21T12:22:48;1.47;;;1.07;;
12970;SDS011;6550;48.650;8.774;2023-03-21T12:25:32;1.33;;;1.23;;
12970;SDS011;6550;48.650;8.774;2023-03-21T12:39:11;1.40;;;1.30;;
12970;SDS011;6550;48.650;8.774;2023-03-21T12:41:59;1.20;;;1.10;;
12970;SDS011;6550;48.650;8.774;2023-03-21T12:44:38;1.43;;;1.20;;
12970;SDS011;6550;48.650;8.774;2023-03-21T12:49:38;1.33;;;1.00;;
12970;SDS011;6550;48.650;8.774;2023-03-21T12:52:14;1.17;;;1.07;;
12970;SDS011;6550;48.650;8.774;2023-03-21T12:57:38;1.10;;;0.93;;
12970;SDS011;6550;48.650;8.774;2023-03-21T13:03:05;1.00;;;0.50;;
12970;SDS011;6550;48.650;8.774;2023-03-21T13:06:03;0.60;;;0.60;;
12970;SDS011;6550;48.650;8.774;2023-03-21T13:11:24;2.35;;;0.80;;
12970;SDS011;6550;48.650;8.774;2023-03-21T13:24:45;0.70;;;0.70;;
12970;SDS011;6550;48.650;8.774;2023-03-21T13:27:17;1.20;;;0.60;;
12970;SDS011;6550;48.650;8.774;2023-03-21T13:29:46;0.67;;;0.67;;
12970;SDS011;6550;48.650;8.774;2023-03-21T13:35:21;0.70;;;0.57;;
12970;SDS011;6550;48.650;8.774;2023-03-21T13:37:58;2.90;;;1.00;;
12970;SDS011;6550;48.650;8.774;2023-03-21T13:40:28;0.83;;;0.83;;
12970;SDS011;6550;48.650;8.774;2023-03-21T14:02:02;0.90;;;0.57;;
12970;SDS011;6550;48.650;8.774;2023-03-21T14:04:51;0.80;;;0.80;;
12970;SDS011;6550;48.650;8.774;2023-03-21T14:10:03;1.67;;;0.87;;
12970;SDS011;6550;48.650;8.774;2023-03-21T14:12:36;2.27;;;0.70;;
12970;SDS011;6550;48.650;8.774;2023-03-21T14:15:07;1.30;;;1.00;;
12970;SDS011;6550;48.650;8.774;2023-03-21T14:17:49;1.30;;;1.20;;
12970;SDS011;6550;48.650;8.774;2023-03-21T14:22:51;1.50;;;1.20;;
12970;SDS011;6550;48.650;8.774;2023-03-21T14:25:20;1.30;;;1.20;;
12970;SDS011;6550;48.650;8.774;2023-03-21T14:27:53;1.00;;;0.90;;
12970;SDS011;6550;48.650;8.774;2023-03-21T14:35:59;1.30;;;1.17;;
12970;SDS011;6550;48.650;8.774;2023-03-21T14:38:37;1.03;;;0.83;;
12970;SDS011;6550;48.650;8.774;2023-03-21T14:41:05;1.30;;;0.83;;
12970;SDS011;6550;48.650;8.774;2023-03-21T14:47:22;1.60;;;1.13;;
12970;SDS011;6550;48.650;8.774;2023-03-21T14:49:53;0.95;;;0.93;;
12970;SDS011;6550;48.650;8.774;2023-03-21T14:52:29;0.97;;;0.80;;
12970;SDS011;6550;48.650;8.774;2023-03-21T14:55:00;1.50;;;1.10;;
12970;SDS011;6550;48.650;8.774;2023-03-21T14:57:31;2.03;;;1.40;;
12970;SDS011;6550;48.650;8.774;2023-03-21T14:59:59;2.00;;;1.20;;
12970;SDS011;6550;48.650;8.774;2023-03-21T15:02:35;2.37;;;1.07;;
12970;SDS011;6550;48.650;8.774;2023-03-21T15:05:16;1.10;;;1.00;;
12970;SDS011;6550;48.650;8.774;2023-03-21T15:07:54;1.20;;;1.10;;
12970;SDS011;6550;48.650;8.774;2023-03-21T15:10:23;1.50;;;1.10;;
12970;SDS011;6550;48.650;8.774;2023-03-21T15:12:53;2.13;;;1.20;;
12970;SDS011;6550;48.650;8.774;2023-03-21T15:15:22;1.80;;;1.20;;
12970;SDS011;6550;48.650;8.774;2023-03-21T15:17:52;3.23;;;1.10;;
12970;SDS011;6550;48.650;8.774;2023-03-21T15:20:24;1.20;;;1.10;;
12970;SDS011;6550;48.650;8.774;2023-03-21T15:22:54;1.00;;;0.90;;
12970;SDS011;6550;48.650;8.774;2023-03-21T15:25:26;1.53;;;1.30;;
12970;SDS011;6550;48.650;8.774;2023-03-21T15:28:01;1.40;;;1.10;;
12970;SDS011;6550;48.650;8.774;2023-03-21T15:30:33;1.13;;;0.90;;
12970;SDS011;6550;48.650;8.774;2023-03-21T15:33:07;2.77;;;1.20;;
12970;SDS011;6550;48.650;8.774;2023-03-21T15:35:42;1.20;;;1.03;;
12970;SDS011;6550;48.650;8.774;2023-03-21T15:41:12;1.47;;;1.00;;
12970;SDS011;6550;48.650;8.774;2023-03-21T15:46:39;2.57;;;1.00;;
12970;SDS011;6550;48.650;8.774;2023-03-21T15:51:34;1.63;;;1.00;;
12970;SDS011;6550;48.650;8.774;2023-03-21T15:54:03;1.53;;;1.00;;
12970;SDS011;6550;48.650;8.774;2023-03-21T15:56:40;1.50;;;0.97;;
12970;SDS011;6550;48.650;8.774;2023-03-21T15:59:12;1.97;;;1.20;;
12970;SDS011;6550;48.650;8.774;2023-03-21T16:01:46;1.40;;;1.07;;
12970;SDS011;6550;48.650;8.774;2023-03-21T16:04:14;2.67;;;1.27;;
12970;SDS011;6550;48.650;8.774;2023-03-21T16:06:57;1.50;;;1.40;;
12970;SDS011;6550;48.650;8.774;2023-03-21T16:09:42;1.93;;;1.60;;
12970;SDS011;6550;48.650;8.774;2023-03-21T16:12:11;2.83;;;1.52;;
12970;SDS011;6550;48.650;8.774;2023-03-21T16:14:44;2.00;;;1.80;;
12970;SDS011;6550;48.650;8.774;2023-03-21T16:19:50;1.63;;;1.53;;
12970;SDS011;6550;48.650;8.774;2023-03-21T16:22:17;2.05;;;1.60;;
12970;SDS011;6550;48.650;8.774;2023-03-21T16:24:47;2.37;;;1.73;;
12970;SDS011;6550;48.650;8.774;2023-03-21T16:27:15;1.67;;;1.57;;
12970;SDS011;6550;48.650;8.774;2023-03-21T16:29:43;1.60;;;1.50;;
12970;SDS011;6550;48.650;8.774;2023-03-21T16:32:14;2.27;;;1.70;;
12970;SDS011;6550;48.650;8.774;2023-03-21T16:34:44;1.33;;;1.23;;
12970;SDS011;6550;48.650;8.774;2023-03-21T16:37:12;1.80;;;1.50;;
12970;SDS011;6550;48.650;8.774;2023-03-21T16:39:42;2.10;;;1.60;;
12970;SDS011;6550;48.650;8.774;2023-03-21T16:42:11;1.63;;;1.33;;
12970;SDS011;6550;48.650;8.774;2023-03-21T16:44:38;1.60;;;1.50;;
12970;SDS011;6550;48.650;8.774;2023-03-21T16:47:15;1.73;;;1.30;;
12970;SDS011;6550;48.650;8.774;2023-03-21T16:49:43;1.60;;;1.30;;
12970;SDS011;6550;48.650;8.774;2023-03-21T16:52:11;2.10;;;1.40;;
12970;SDS011;6550;48.650;8.774;2023-03-21T16:54:39;1.27;;;1.17;;
12970;SDS011;6550;48.650;8.774;2023-03-21T16:57:07;1.90;;;1.50;;
12970;SDS011;6550;48.650;8.774;2023-03-21T16:59:44;1.40;;;1.30;;
12970;SDS011;6550;48.650;8.774;2023-03-21T17:02:12;1.40;;;1.30;;
12970;SDS011;6550;48.650;8.774;2023-03-21T17:04:41;1.50;;;1.40;;
12970;SDS011;6550;48.650;8.774;2023-03-21T17:07:10;1.40;;;1.30;;
12970;SDS011;6550;48.650;8.774;2023-03-21T17:09:41;1.47;;;1.30;;
12970;SDS011;6550;48.650;8.774;2023-03-21T17:12:13;1.50;;;1.40;;
12970;SDS011;6550;48.650;8.774;2023-03-21T17:14:43;1.70;;;1.40;;
12970;SDS011;6550;48.650;8.774;2023-03-21T17:17:11;1.83;;;1.40;;
12970;SDS011;6550;48.650;8.774;2023-03-21T17:19:40;1.60;;;1.13;;
12970;SDS011;6550;48.650;8.774;2023-03-21T17:22:09;1.40;;;1.30;;
12970;SDS011;6550;48.650;8.774;2023-03-21T17:24:39;1.60;;;1.50;;
12970;SDS011;6550;48.650;8.774;2023-03-21T17:27:06;1.50;;;1.40;;
12970;SDS011;6550;48.650;8.774;2023-03-21T17:29:36;4.00;;;1.43;;
12970;SDS011;6550;48.650;8.774;2023-03-21T17:32:05;1.40;;;1.20;;
12970;SDS011;6550;48.650;8.774;2023-03-21T17:34:32;1.50;;;1.23;;
12970;SDS011;6550;48.650;8.774;2023-03-21T17:36:59;1.40;;;1.30;;
12970;SDS011;6550;48.650;8.774;2023-03-21T17:39:26;3.03;;;1.30;;
12970;SDS011;6550;48.650;8.774;2023-03-21T17:41:54;1.30;;;1.20;;
12970;SDS011;6550;48.650;8.774;2023-03-21T17:44:22;2.20;;;1.47;;
12970;SDS011;6550;48.650;8.774;2023-03-21T17:46:54;1.67;;;1.20;;
12970;SDS011;6550;48.650;8.774;2023-03-21T17:49:21;2.77;;;1.10;;
12970;SDS011;6550;48.650;8.774;2023-03-21T17:51:53;2.20;;;1.10;;
12970;SDS011;6550;48.650;8.774;2023-03-21T17:54:20;1.47;;;1.07;;
12970;SDS011;6550;48.650;8.774;2023-03-21T17:56:48;1.47;;;1.30;;
12970;SDS011;6550;48.650;8.774;2023-03-21T17:59:17;1.33;;;1.10;;